Glacier Park International Airport
KGPI : rendu visible

Aérodrome :











RETROUVEZ-NOUS SUR...

 
LOGIN :

S'inscrire | Disclaimer

   EN    FR    IT 

 









Légende :    VFR   VFR Marginal   IFR   IFR Intensif   IFR Très Intensif
Visi : 
Plafond : 
>= 8 km
>= 3000ft
5 à 8 km
1000 à 3000 ft
1500m à 5 km
500 à 1000 ft
800 à 1500m
200 à 500 ft
< 800m
< 200 ft
Symboles :   Orages  Brouillard  Fortes neiges  Fortes précipitations  Vent > 20 kt






- Altitude de l'aérodrome : 2977 ft
- Code IATA : FCA


KGPI - Glacier Park International

DERNIER METAR :
  • 150741Z AUTO 00000KT 4SM BR OVC020 01/M01 A3013 RMK AO2 VIS 2 1/2 NE T00061006 TSNO

METARs EXPIRÉS :
  • 150734Z AUTO 27003KT 2 1/2SM BR OVC020 01/M01 A3013 RMK AO2 T00061006 TSNO
  • 150720Z AUTO 00000KT 1 1/2SM BR OVC020 01/00 A3014 RMK AO2 T00060000 TSNO
  • 150710Z AUTO 00000KT 2SM BR OVC020 01/M01 A3013 RMK AO2 T00061006 TSNO
  • 150655Z AUTO 34004KT 1 3/4SM BR OVC020 01/M01 A3014 RMK AO2 SLP229 T00061006 400281006 TSNO
  • 150616Z 02003KT 2 1/2SM BR OVC020 01/M01 A3014 RMK AO2 T00061006
  • 150555Z 00000KT 2 1/2SM BR OVC022 01/M01 A3015 RMK AO2 SLP233 T00061006 10022 20000 58002
  • 150532Z 00000KT 2 1/2SM BR FEW009 OVC022 01/M01 A3015 RMK AO2 T00061006
  • 150522Z 00000KT 3SM BR SCT008 OVC022 01/M01 A3015 RMK AO2 T00061006
  • 150455Z 00000KT 2 1/2SM BR BKN005 OVC009 01/M01 A3016 RMK AO2 CIG 004V008 SLP238 T00061006

TAF KGPI
Valide du 15 à 07h jusqu'au 16 à 06h UTC


150709Z 1507/1606 VRB04KT 1SM BR OVC020
FM151800 VRB02KT 3SM BR OVC008
FM152200 18003KT 6SM BR VCSH OVC040



MET'MAP, la Météo Aéronautique d'un coup d'oeil ! - Copyright ORBIFLY Décembre 2007 - Disclaimer

ORBIFLY MET'MAP TEAM :

Programmation & Développement : Alexandra Zaïnal
Conception & Développement : Baudouin d'Aumeries
Co-Programmation & Développement : Marc-Olivier Méhu
Soutien technique & logistique : Manuel Goepfert

Contact : metmap@orbifly.com




SOURCES & CREDITS :

   NOAA       Earth
Advisory